Usman', Russia
Current Conditions -  °F | °C
As of 11:00 PM on Friday 19 Dec 2014 (Local Time) from UUOO Reporting Station
Light Rain Light Rain  
Wind Chill: 29°   Ceiling: 2500
Heat Index: 36°   Visibility: 4mi
Dew Point: 32°   Wind: 9mph
Humidity: 87%   Direction: 210°SSW
Pressure: 29.8"   Gusts: 18mph
Location:  52.04°N, 39.42°E
Report Text: UUOO 192000Z 21004G08MPS 7000 -RA OVC025 02/00 Q1009 NOSIG RMK30290242
Loading
Personal Weather Stations






























Interactive Weather Map New forecast layout! Learn more

10-Day Weather Forecast

Advertisements
Track Severe Weather on mobile